createdAt,value
2019-05-15T00:00:38.951Z,53
2019-05-15T00:05:42.695Z,53
2019-05-15T00:10:52.675Z,53
2019-05-15T00:16:02.626Z,54
2019-05-15T00:21:09.577Z,54
2019-05-15T00:26:12.615Z,54
2019-05-15T00:31:18.921Z,54
2019-05-15T00:36:22.628Z,54
2019-05-15T00:41:28.082Z,55
2019-05-15T00:46:38.716Z,55
2019-05-15T00:51:48.972Z,55
2019-05-15T00:56:52.766Z,55
2019-05-15T01:01:59.685Z,55
2019-05-15T01:07:02.574Z,56
2019-05-15T01:12:09.341Z,56
2019-05-15T01:17:18.764Z,56
2019-05-15T01:22:28.941Z,57
2019-05-15T01:27:32.563Z,57
2019-05-15T01:32:39.919Z,57
2019-05-15T01:37:42.581Z,58
2019-05-15T01:42:49.853Z,58
2019-05-15T01:47:58.837Z,58
2019-05-15T01:53:08.644Z,58
2019-05-15T01:58:12.557Z,58
2019-05-15T02:03:18.671Z,59
2019-05-15T02:08:22.582Z,59
2019-05-15T02:13:28.546Z,59
2019-05-15T02:18:39.506Z,59
2019-05-15T02:23:48.444Z,60
2019-05-15T02:28:52.513Z,60
2019-05-15T02:33:59.342Z,60
2019-05-15T02:39:02.575Z,60
2019-05-15T02:44:11.168Z,61
2019-05-15T02:54:10.755Z,61
2019-05-15T02:59:12.729Z,62
2019-05-15T03:04:20.334Z,62
2019-05-15T03:09:30.176Z,62
2019-05-15T03:14:40.303Z,62
2019-05-15T03:19:42.714Z,61
2019-05-15T03:24:50.591Z,61
2019-05-15T03:29:52.673Z,61
2019-05-15T03:35:05.931Z,61
2019-05-15T03:36:04.180Z,61
2019-05-15T03:40:10.991Z,61
2019-05-15T03:45:19.551Z,61
2019-05-15T03:50:22.707Z,61
2019-05-15T03:55:29.938Z,61
2019-05-15T04:00:32.702Z,60
2019-05-15T04:05:39.410Z,61
2019-05-15T04:10:49.097Z,61
2019-05-15T04:15:59.738Z,61
2019-05-15T04:21:02.679Z,60
2019-05-15T04:26:09.701Z,59
2019-05-15T04:31:12.711Z,59
2019-05-15T04:36:19.562Z,59
2019-05-15T04:41:22.635Z,58
2019-05-15T04:46:32.735Z,59
2019-05-15T04:51:42.745Z,59
2019-05-15T04:56:49.269Z,59
2019-05-15T05:03:03.957Z,59
2019-05-15T05:06:58.994Z,58
2019-05-15T05:12:02.755Z,58
2019-05-15T05:17:12.613Z,57
2019-05-15T05:22:22.664Z,57
2019-05-15T05:27:29.087Z,58
2019-05-15T05:32:38.530Z,57
2019-05-15T05:37:39.351Z,56
2019-05-15T05:42:42.630Z,56
2019-05-15T05:47:52.545Z,56
2019-05-15T05:53:02.581Z,55
2019-05-15T05:58:08.402Z,55
2019-05-15T06:03:12.660Z,54
2019-05-15T06:08:20.271Z,53
2019-05-15T06:13:22.589Z,54
2019-05-15T06:23:26.439Z,52
2019-05-15T06:24:30.791Z,52
2019-05-15T06:28:29.482Z,51
2019-05-15T06:33:32.798Z,51
2019-05-15T06:38:42.767Z,50
2019-05-15T06:43:52.764Z,49
2019-05-15T06:48:58.394Z,47
2019-05-15T06:54:02.754Z,47
2019-05-15T06:59:09.126Z,44
2019-05-15T07:04:12.779Z,45
2019-05-15T07:09:23.003Z,42
2019-05-15T07:14:32.740Z,42
2019-05-15T07:19:39.541Z,42
2019-05-15T07:29:38.848Z,41
2019-05-15T07:34:43.066Z,39
2019-05-15T07:39:49.053Z,40
2019-05-15T07:44:59.176Z,41
2019-05-15T07:50:09.646Z,40
2019-05-15T07:55:13.118Z,38
2019-05-15T08:00:19.346Z,39
2019-05-15T08:05:23.012Z,39
2019-05-15T08:10:28.750Z,39
2019-05-15T08:15:38.504Z,34
2019-05-15T08:20:49.484Z,32
2019-05-15T08:25:53.039Z,32
2019-05-15T08:35:53.345Z,32
2019-05-15T08:40:59.523Z,32
2019-05-15T08:46:03.230Z,32
2019-05-15T08:51:13.221Z,31
2019-05-15T08:56:23.204Z,32
2019-05-15T09:01:29.035Z,32
2019-05-15T09:06:33.315Z,33
2019-05-15T09:11:39.623Z,32
2019-05-15T09:16:43.169Z,32
2019-05-15T09:21:53.299Z,32
2019-05-15T09:27:03.168Z,32
2019-05-15T09:32:12.633Z,33
2019-05-15T09:37:13.168Z,32
2019-05-15T09:42:18.360Z,32
2019-05-15T09:47:23.147Z,32
2019-05-15T09:52:30.345Z,31
2019-05-15T09:57:33.157Z,32
2019-05-15T10:02:39.874Z,32
2019-05-15T10:07:43.236Z,32
2019-05-15T10:12:49.767Z,32
2019-05-15T10:17:53.188Z,33
2019-05-15T10:22:59.333Z,31
2019-05-15T10:28:10.295Z,32
2019-05-15T10:33:20.581Z,33
2019-05-15T10:38:23.197Z,33
2019-05-15T10:43:29.107Z,34
2019-05-15T10:48:33.303Z,34
2019-05-15T10:53:39.499Z,34
2019-05-15T10:58:50.837Z,34
2019-05-15T11:03:59.161Z,35
2019-05-15T11:09:03.140Z,35
2019-05-15T11:14:09.436Z,33
2019-05-15T11:19:13.106Z,32
2019-05-15T11:24:19.861Z,33
2019-05-15T11:29:28.112Z,32
2019-05-15T11:34:38.618Z,33
2019-05-15T11:39:47.001Z,32
2019-05-15T11:44:48.732Z,31
2019-05-15T11:49:53.099Z,30
2019-05-15T11:54:59.266Z,32
2019-05-15T12:04:58.779Z,29
2019-05-15T12:10:03.264Z,30
2019-05-15T12:15:08.293Z,31
2019-05-15T12:20:19.750Z,31
2019-05-15T12:25:32.130Z,31
2019-05-15T12:30:33.225Z,30
2019-05-15T12:59:51.660Z,30
2019-05-15T13:01:33.274Z,31
2019-05-15T13:07:50.571Z,31
2019-05-15T13:11:48.772Z,31
2019-05-15T13:16:53.261Z,30
2019-05-15T13:21:58.266Z,31
2019-05-15T13:27:03.238Z,33
2019-05-15T13:32:13.097Z,33
2019-05-15T13:37:30.831Z,33
2019-05-15T13:42:28.319Z,34
2019-05-15T13:47:33.141Z,38
2019-05-15T13:52:39.671Z,44
2019-05-15T13:57:43.140Z,50
2019-05-15T14:02:53.177Z,51
2019-05-15T14:08:03.152Z,52
2019-05-15T14:13:08.108Z,51
2019-05-15T14:18:14.433Z,52
2019-05-15T14:23:18.850Z,50
2019-05-15T14:28:23.195Z,49
2019-05-15T14:33:33.224Z,48
2019-05-15T14:43:38.612Z,47
2019-05-15T14:48:43.574Z,45
2019-05-15T14:53:49.399Z,46
2019-05-15T14:58:58.878Z,46
2019-05-15T15:04:09.465Z,45
2019-05-15T15:09:13.244Z,45
2019-05-15T15:14:18.325Z,43
2019-05-15T15:19:23.301Z,42
2019-05-15T15:24:28.286Z,42
2019-05-15T15:29:39.142Z,42
2019-05-15T15:34:48.307Z,42
2019-05-15T15:39:53.353Z,42
2019-05-15T15:44:58.526Z,42
2019-05-15T15:50:03.656Z,42
2019-05-15T15:55:09.339Z,41
2019-05-15T16:00:18.778Z,42
2019-05-15T16:05:29.357Z,42
2019-05-15T16:10:33.249Z,42
2019-05-15T16:15:38.962Z,42
2019-05-15T16:20:43.445Z,41
2019-05-15T16:25:49.381Z,41
2019-05-15T16:30:53.341Z,42
2019-05-15T16:36:03.240Z,43
2019-05-15T16:41:13.414Z,43
2019-05-15T16:46:19.512Z,44
2019-05-15T16:56:19.294Z,44
2019-05-15T17:01:23.545Z,45
2019-05-15T17:06:28.635Z,46
2019-05-15T17:11:38.697Z,46
2019-05-15T17:16:48.445Z,47
2019-05-15T17:21:53.456Z,48
2019-05-15T17:26:59.952Z,49
2019-05-15T17:32:03.485Z,49
2019-05-15T17:37:08.558Z,49
2019-05-15T17:42:13.496Z,50
2019-05-15T17:47:18.510Z,50
2019-05-15T17:52:23.416Z,51
2019-05-15T17:57:28.948Z,51
2019-05-15T18:02:33.487Z,53
2019-05-15T18:12:33.481Z,59
2019-05-15T18:17:41.741Z,61
2019-05-15T18:22:43.549Z,63
2019-05-15T18:27:53.569Z,66
2019-05-15T18:33:03.480Z,67
2019-05-15T18:38:08.950Z,65
2019-05-15T18:43:13.699Z,65
2019-05-15T18:48:18.772Z,64
2019-05-15T18:53:23.504Z,62
2019-05-15T18:58:33.504Z,62
2019-05-15T19:03:43.500Z,61
2019-05-15T19:08:48.512Z,60
2019-05-15T19:13:53.505Z,60
2019-05-15T19:23:53.759Z,59
2019-05-15T19:28:59.552Z,59
2019-05-15T19:34:03.803Z,58
2019-05-15T19:39:13.611Z,59
2019-05-15T19:44:23.870Z,58
2019-05-15T19:49:28.636Z,58
2019-05-15T19:54:33.664Z,58
2019-05-15T19:59:38.600Z,58
2019-05-15T20:04:43.627Z,57
2019-05-15T20:09:53.984Z,57
2019-05-15T20:15:03.670Z,57
2019-05-15T20:20:09.267Z,57
2019-05-15T20:25:13.676Z,57
2019-05-15T20:30:18.620Z,56
2019-05-15T20:35:23.890Z,56
2019-05-15T20:40:33.594Z,56
2019-05-15T20:45:43.847Z,56
2019-05-15T20:50:48.691Z,56
2019-05-15T20:55:53.648Z,56
2019-05-15T21:00:59.452Z,56
2019-05-15T21:06:03.644Z,56
2019-05-15T21:11:13.683Z,56
2019-05-15T21:16:28.174Z,56
2019-05-15T21:26:24.078Z,54
2019-05-15T21:31:28.894Z,54
2019-05-15T21:36:33.862Z,55
2019-05-15T21:41:43.861Z,55
2019-05-15T21:46:53.766Z,55
2019-05-15T21:51:58.876Z,55
2019-05-15T21:58:18.901Z,55
2019-05-15T22:02:08.825Z,55
2019-05-15T22:07:13.782Z,55
2019-05-15T22:12:23.765Z,55
2019-05-15T22:17:33.818Z,54
2019-05-15T22:22:38.777Z,54
2019-05-15T22:27:43.791Z,54
2019-05-15T22:32:49.883Z,54
2019-05-15T22:37:53.730Z,54
2019-05-15T22:43:03.727Z,54
2019-05-15T22:48:13.712Z,54
2019-05-15T22:53:19.211Z,54
2019-05-15T22:58:23.688Z,55
2019-05-15T23:03:28.715Z,55
2019-05-15T23:08:33.694Z,55
2019-05-15T23:18:33.907Z,58
2019-05-15T23:23:38.923Z,62
2019-05-15T23:28:43.886Z,63
2019-05-15T23:33:53.855Z,63
2019-05-15T23:39:03.866Z,65
2019-05-15T23:44:08.907Z,65
2019-05-15T23:49:13.846Z,66
2019-05-15T23:54:18.993Z,66
2019-05-15T23:59:23.882Z,66
